createdAt,value
2023-01-15T00:02:22.230Z,100.00
2023-01-15T00:04:51.998Z,100.00
2023-01-15T00:07:19.003Z,100.00
2023-01-15T00:09:45.943Z,100.00
2023-01-15T00:12:12.707Z,100.00
2023-01-15T00:14:39.997Z,100.00
2023-01-15T00:17:06.825Z,100.00
2023-01-15T00:19:33.765Z,100.00
2023-01-15T00:22:00.541Z,100.00
2023-01-15T00:24:46.122Z,100.00
2023-01-15T00:27:31.373Z,100.00
2023-01-15T00:29:58.225Z,100.00
2023-01-15T00:32:27.672Z,100.00
2023-01-15T00:34:54.401Z,100.00
2023-01-15T00:37:21.589Z,100.00
2023-01-15T00:39:49.187Z,100.00
2023-01-15T00:42:17.537Z,100.00
2023-01-15T00:44:44.422Z,100.00
2023-01-15T00:47:14.950Z,100.00
2023-01-15T00:49:42.715Z,100.00
2023-01-15T00:52:11.032Z,100.00
2023-01-15T00:54:37.829Z,100.00
2023-01-15T00:57:05.590Z,100.00
2023-01-15T00:59:38.224Z,100.00
2023-01-15T01:02:05.154Z,100.00
2023-01-15T01:04:32.253Z,100.00
2023-01-15T01:06:59.097Z,100.00
2023-01-15T01:09:25.947Z,100.00
2023-01-15T01:11:52.758Z,100.00
2023-01-15T01:14:19.627Z,100.00
2023-01-15T01:16:46.465Z,100.00
2023-01-15T01:19:16.893Z,100.00
2023-01-15T01:21:44.719Z,100.00
2023-01-15T01:24:13.717Z,100.00
2023-01-15T01:26:44.095Z,100.00
2023-01-15T01:29:13.381Z,100.00
2023-01-15T01:31:40.230Z,100.00
2023-01-15T01:34:07.451Z,100.00
2023-01-15T01:36:38.286Z,100.00
2023-01-15T01:39:07.042Z,100.00
2023-01-15T01:41:34.491Z,100.00
2023-01-15T01:44:02.875Z,100.00
2023-01-15T01:46:32.995Z,100.00
2023-01-15T01:49:09.847Z,100.00
2023-01-15T01:51:41.281Z,100.00
2023-01-15T01:54:10.905Z,100.00
2023-01-15T01:56:37.825Z,100.00
2023-01-15T01:59:06.822Z,100.00
2023-01-15T02:01:34.484Z,100.00
2023-01-15T02:04:02.593Z,100.00
2023-01-15T02:06:30.244Z,100.00
2023-01-15T02:08:57.251Z,100.00
2023-01-15T02:11:24.642Z,100.00
2023-01-15T02:14:14.567Z,100.00
2023-01-15T02:16:52.137Z,100.00
2023-01-15T02:19:49.652Z,100.00
2023-01-15T02:22:29.470Z,100.00
2023-01-15T02:24:56.168Z,100.00
2023-01-15T02:27:24.611Z,100.00
2023-01-15T02:30:22.884Z,100.00
2023-01-15T02:32:59.685Z,100.00
2023-01-15T02:35:36.814Z,100.00
2023-01-15T02:38:07.387Z,100.00
2023-01-15T02:40:36.221Z,100.00
2023-01-15T02:43:05.141Z,100.00
2023-01-15T02:45:36.097Z,100.00
2023-01-15T02:48:09.404Z,100.00
2023-01-15T02:50:42.671Z,100.00
2023-01-15T02:53:14.703Z,100.00
2023-01-15T02:55:49.320Z,100.00
2023-01-15T02:58:24.165Z,100.00
2023-01-15T03:00:54.631Z,100.00
2023-01-15T03:03:41.009Z,100.00
2023-01-15T03:06:18.480Z,100.00
2023-01-15T03:08:45.899Z,100.00
2023-01-15T03:11:15.466Z,100.00
2023-01-15T03:14:01.059Z,100.00
2023-01-15T03:16:55.672Z,100.00
2023-01-15T03:19:58.133Z,100.00
2023-01-15T03:22:34.828Z,100.00
2023-01-15T03:25:11.974Z,100.00
2023-01-15T03:27:38.890Z,100.00
2023-01-15T03:30:07.688Z,100.00
2023-01-15T03:32:34.885Z,100.00
2023-01-15T03:35:04.027Z,100.00
2023-01-15T03:37:31.696Z,100.00
2023-01-15T03:39:59.292Z,100.00
2023-01-15T03:42:47.652Z,100.00
2023-01-15T03:45:23.490Z,100.00
2023-01-15T03:48:05.441Z,100.00
2023-01-15T03:50:37.819Z,100.00
2023-01-15T03:53:18.550Z,100.00
2023-01-15T03:56:12.493Z,100.00
2023-01-15T03:58:47.596Z,100.00
2023-01-15T04:01:18.884Z,100.00
2023-01-15T04:03:48.879Z,100.00
2023-01-15T04:06:15.725Z,100.00
2023-01-15T04:08:44.718Z,100.00
2023-01-15T04:11:11.435Z,100.00
2023-01-15T04:13:38.637Z,100.00
2023-01-15T04:16:05.740Z,100.00
2023-01-15T04:18:32.517Z,100.00
2023-01-15T04:20:59.316Z,100.00
2023-01-15T04:23:26.126Z,100.00
2023-01-15T04:25:52.859Z,100.00
2023-01-15T04:28:19.578Z,100.00
2023-01-15T04:30:46.470Z,100.00
2023-01-15T04:33:13.470Z,100.00
2023-01-15T04:35:40.178Z,100.00
2023-01-15T04:38:06.880Z,100.00
2023-01-15T04:40:52.265Z,100.00
2023-01-15T04:43:37.514Z,100.00
2023-01-15T04:46:04.410Z,100.00
2023-01-15T04:48:31.541Z,100.00
2023-01-15T04:51:03.404Z,100.00
2023-01-15T04:53:30.111Z,100.00
2023-01-15T04:56:02.018Z,100.00
2023-01-15T04:58:29.229Z,100.00
2023-01-15T05:00:56.420Z,100.00
2023-01-15T05:03:23.464Z,100.00
2023-01-15T05:05:50.652Z,100.00
2023-01-15T05:08:17.459Z,100.00
2023-01-15T05:10:44.326Z,100.00
2023-01-15T05:13:11.136Z,100.00
2023-01-15T05:15:38.903Z,100.00
2023-01-15T05:18:05.772Z,100.00
2023-01-15T05:20:36.544Z,100.00
2023-01-15T05:23:03.270Z,100.00
2023-01-15T05:25:29.950Z,100.00
2023-01-15T05:27:56.624Z,100.00
2023-01-15T05:30:23.476Z,100.00
2023-01-15T05:32:50.181Z,100.00
2023-01-15T05:35:17.192Z,100.00
2023-01-15T05:37:43.966Z,100.00
2023-01-15T05:40:11.348Z,100.00
2023-01-15T05:42:38.098Z,100.00
2023-01-15T05:45:05.184Z,100.00
2023-01-15T05:47:31.935Z,100.00
2023-01-15T05:49:58.806Z,100.00
2023-01-15T05:52:25.457Z,100.00
2023-01-15T05:54:52.225Z,100.00
2023-01-15T05:57:19.033Z,100.00
2023-01-15T05:59:45.780Z,100.00
2023-01-15T06:02:12.449Z,100.00
2023-01-15T06:04:39.128Z,100.00
2023-01-15T06:07:05.858Z,100.00
2023-01-15T06:09:32.683Z,100.00
2023-01-15T06:11:59.413Z,100.00
2023-01-15T06:14:26.319Z,100.00
2023-01-15T06:16:53.153Z,100.00
2023-01-15T06:19:20.055Z,100.00
2023-01-15T06:21:46.823Z,100.00
2023-01-15T06:24:16.382Z,100.00
2023-01-15T06:26:43.391Z,100.00
2023-01-15T06:29:10.196Z,100.00
2023-01-15T06:31:37.246Z,100.00
2023-01-15T06:34:04.119Z,100.00
2023-01-15T06:36:30.893Z,100.00
2023-01-15T06:38:58.099Z,100.00
2023-01-15T06:41:45.731Z,100.00
2023-01-15T06:44:33.138Z,100.00
2023-01-15T06:47:22.232Z,100.00
2023-01-15T06:49:56.341Z,100.00
2023-01-15T06:52:29.905Z,100.00
2023-01-15T06:54:56.724Z,100.00
2023-01-15T06:57:23.641Z,100.00
2023-01-15T06:59:51.242Z,100.00
2023-01-15T07:02:18.758Z,100.00
2023-01-15T07:04:47.001Z,100.00
2023-01-15T07:07:18.607Z,100.00
2023-01-15T07:09:45.534Z,100.00
2023-01-15T07:12:12.294Z,100.00
2023-01-15T07:14:39.409Z,100.00
2023-01-15T07:17:06.706Z,100.00
2023-01-15T07:19:33.586Z,100.00
2023-01-15T07:22:00.372Z,100.00
2023-01-15T07:24:27.156Z,100.00
2023-01-15T07:26:53.944Z,100.00
2023-01-15T07:29:21.862Z,100.00
2023-01-15T07:31:49.346Z,100.00
2023-01-15T07:34:16.450Z,100.00
2023-01-15T07:36:43.507Z,100.00
2023-01-15T07:39:11.369Z,100.00
2023-01-15T07:41:57.303Z,100.00
2023-01-15T07:45:11.299Z,100.00
2023-01-15T07:47:58.687Z,100.00
2023-01-15T07:50:25.459Z,100.00
2023-01-15T07:52:53.756Z,100.00
2023-01-15T07:55:21.685Z,100.00
2023-01-15T07:57:48.488Z,100.00
2023-01-15T08:00:20.508Z,100.00
2023-01-15T08:02:49.709Z,100.00
2023-01-15T08:05:17.644Z,100.00
2023-01-15T08:07:45.298Z,100.00
2023-01-15T08:10:13.764Z,100.00
2023-01-15T08:13:00.890Z,100.00
2023-01-15T08:15:32.059Z,100.00
2023-01-15T08:17:59.324Z,100.00
2023-01-15T08:20:27.058Z,100.00
2023-01-15T08:22:53.975Z,100.00
2023-01-15T08:25:23.657Z,100.00
2023-01-15T08:27:51.539Z,100.00
2023-01-15T08:30:21.076Z,100.00
2023-01-15T08:32:47.836Z,100.00
2023-01-15T08:35:14.622Z,100.00
2023-01-15T08:37:42.633Z,100.00
2023-01-15T08:40:12.481Z,100.00
2023-01-15T08:42:39.845Z,100.00
2023-01-15T08:45:07.509Z,100.00
2023-01-15T08:47:34.343Z,100.00
2023-01-15T08:50:01.069Z,100.00
2023-01-15T08:52:27.824Z,100.00
2023-01-15T08:54:54.664Z,100.00
2023-01-15T08:57:21.947Z,100.00
2023-01-15T08:59:48.783Z,100.00
2023-01-15T09:02:16.286Z,100.00
2023-01-15T09:04:43.176Z,100.00
2023-01-15T09:07:11.039Z,100.00
2023-01-15T09:09:37.840Z,100.00
2023-01-15T09:12:04.816Z,100.00
2023-01-15T09:14:56.080Z,100.00
2023-01-15T09:17:18.141Z,100.00
2023-01-15T09:19:47.059Z,100.00
2023-01-15T09:22:13.858Z,100.00
2023-01-15T09:24:40.763Z,100.00
2023-01-15T09:27:07.514Z,100.00
2023-01-15T09:29:37.430Z,100.00
2023-01-15T09:32:04.511Z,100.00
2023-01-15T09:34:31.190Z,100.00
2023-01-15T09:36:57.926Z,100.00
2023-01-15T09:39:24.581Z,100.00
2023-01-15T09:42:16.122Z,100.00
2023-01-15T09:45:10.371Z,100.00
2023-01-15T09:47:40.803Z,100.00
2023-01-15T09:50:45.166Z,100.00
2023-01-15T09:53:39.909Z,100.00
2023-01-15T09:56:16.429Z,100.00
2023-01-15T09:58:43.983Z,100.00
2023-01-15T10:01:18.758Z,100.00
2023-01-15T10:03:51.852Z,100.00
2023-01-15T10:06:28.550Z,100.00
2023-01-15T10:09:13.160Z,100.00
2023-01-15T10:12:14.436Z,100.00
2023-01-15T10:14:52.193Z,100.00
2023-01-15T10:17:28.711Z,100.00
2023-01-15T10:19:57.509Z,100.00
2023-01-15T10:22:39.129Z,100.00
2023-01-15T10:25:14.583Z,100.00
2023-01-15T10:27:47.442Z,100.00
2023-01-15T10:30:29.672Z,100.00
2023-01-15T10:33:03.379Z,100.00
2023-01-15T10:35:40.921Z,100.00
2023-01-15T10:38:25.528Z,100.00
2023-01-15T10:41:06.599Z,100.00
2023-01-15T10:43:52.394Z,100.00
2023-01-15T10:46:24.475Z,100.00
2023-01-15T10:49:06.223Z,100.00
2023-01-15T10:51:47.438Z,100.00
2023-01-15T10:54:36.425Z,100.00
2023-01-15T10:57:20.949Z,100.00
2023-01-15T10:59:47.777Z,100.00
2023-01-15T11:02:23.244Z,100.00
2023-01-15T11:04:50.132Z,100.00
2023-01-15T11:07:18.046Z,100.00
2023-01-15T11:09:45.169Z,100.00
2023-01-15T11:12:58.719Z,100.00
2023-01-15T11:15:49.354Z,100.00
2023-01-15T11:18:45.427Z,100.00
2023-01-15T11:21:15.302Z,100.00
2023-01-15T11:23:42.598Z,100.00
2023-01-15T11:26:10.535Z,100.00
2023-01-15T11:28:43.526Z,100.00
2023-01-15T11:31:12.626Z,100.00
2023-01-15T11:33:40.164Z,100.00
2023-01-15T11:36:20.026Z,100.00
2023-01-15T11:38:49.215Z,100.00
2023-01-15T11:41:24.242Z,100.00
2023-01-15T11:44:17.505Z,100.00
2023-01-15T11:47:06.190Z,100.00
2023-01-15T11:49:51.612Z,100.00
2023-01-15T11:52:26.109Z,100.00
2023-01-15T11:54:55.237Z,100.00
2023-01-15T11:57:28.210Z,100.00
2023-01-15T11:59:57.196Z,100.00
2023-01-15T12:02:38.964Z,100.00
2023-01-15T12:05:07.173Z,100.00
2023-01-15T12:07:42.750Z,100.00
2023-01-15T12:10:15.618Z,100.00
2023-01-15T12:13:32.213Z,100.00
2023-01-15T12:16:12.829Z,100.00
2023-01-15T12:19:06.136Z,100.00
2023-01-15T12:21:52.353Z,100.00
2023-01-15T12:24:34.816Z,100.00
2023-01-15T12:27:20.376Z,100.00
2023-01-15T12:29:59.504Z,100.00
2023-01-15T12:32:42.023Z,100.00
2023-01-15T12:35:45.893Z,100.00
2023-01-15T12:38:40.059Z,100.00
2023-01-15T12:41:22.279Z,100.00
2023-01-15T12:47:00.102Z,100.00
2023-01-15T12:49:40.634Z,100.00
2023-01-15T12:52:20.985Z,99.04
2023-01-15T12:54:58.069Z,98.72
2023-01-15T12:57:37.234Z,96.55
2023-01-15T13:00:13.927Z,95.55
2023-01-15T13:03:01.965Z,95.58
2023-01-15T13:05:33.253Z,95.30
2023-01-15T13:08:19.327Z,95.11
2023-01-15T13:10:52.411Z,92.84
2023-01-15T13:13:25.108Z,93.00
2023-01-15T13:16:01.957Z,92.90
2023-01-15T13:18:44.405Z,93.46
2023-01-15T13:21:15.578Z,91.11
2023-01-15T13:24:11.077Z,89.53
2023-01-15T13:30:48.742Z,87.27
2023-01-15T13:33:27.609Z,88.61
2023-01-15T13:36:14.323Z,89.04
2023-01-15T13:38:45.764Z,87.23
2023-01-15T13:41:40.651Z,88.25
2023-01-15T13:44:19.337Z,87.22
2023-01-15T13:47:04.400Z,86.86
2023-01-15T13:49:52.720Z,87.34
2023-01-15T13:52:42.996Z,85.44
2023-01-15T13:55:23.246Z,87.04
2023-01-15T13:57:50.519Z,85.67
2023-01-15T14:00:38.157Z,85.87
2023-01-15T14:03:35.372Z,86.76
2023-01-15T14:06:12.132Z,86.91
2023-01-15T14:08:45.329Z,85.60
2023-01-15T14:11:34.947Z,87.24
2023-01-15T14:14:43.644Z,86.02
2023-01-15T14:17:40.806Z,85.33
2023-01-15T14:20:11.889Z,84.19
2023-01-15T14:23:01.609Z,85.50
2023-01-15T14:25:54.829Z,86.12
2023-01-15T14:29:01.981Z,85.30
2023-01-15T14:31:29.287Z,85.68
2023-01-15T14:34:11.340Z,84.78
2023-01-15T14:36:52.116Z,84.76
2023-01-15T14:39:58.519Z,84.98
2023-01-15T14:42:54.413Z,84.71
2023-01-15T14:45:25.601Z,84.74
2023-01-15T14:47:58.654Z,86.27
2023-01-15T14:50:55.022Z,85.37
2023-01-15T14:53:32.814Z,86.58
2023-01-15T14:56:14.615Z,86.92
2023-01-15T14:58:48.306Z,86.83
2023-01-15T15:01:21.562Z,87.00
2023-01-15T15:04:15.566Z,85.41
2023-01-15T15:07:25.809Z,85.88
2023-01-15T15:13:34.637Z,84.36
2023-01-15T15:16:14.097Z,85.23
2023-01-15T15:19:28.470Z,83.51
2023-01-15T15:21:59.415Z,81.44
2023-01-15T15:24:33.412Z,80.51
2023-01-15T15:27:22.303Z,80.76
2023-01-15T15:29:49.741Z,77.94
2023-01-15T15:32:23.222Z,78.48
2023-01-15T15:34:52.909Z,78.67
2023-01-15T15:37:24.780Z,78.36
2023-01-15T15:39:59.521Z,79.11
2023-01-15T15:42:50.416Z,78.59
2023-01-15T15:45:38.190Z,78.64
2023-01-15T15:48:40.080Z,78.35
2023-01-15T15:51:25.350Z,79.08
2023-01-15T15:54:21.082Z,78.30
2023-01-15T15:57:03.433Z,79.32
2023-01-15T15:59:38.627Z,79.16
2023-01-15T16:02:22.987Z,78.41
2023-01-15T16:04:52.905Z,78.55
2023-01-15T16:07:29.568Z,78.72
2023-01-15T16:10:02.820Z,79.33
2023-01-15T16:12:33.264Z,78.57
2023-01-15T16:15:00.880Z,78.68
2023-01-15T16:17:28.252Z,78.79
2023-01-15T16:19:56.707Z,79.31
2023-01-15T16:22:23.582Z,78.84
2023-01-15T16:24:56.202Z,79.21
2023-01-15T16:27:33.504Z,79.47
2023-01-15T16:30:00.434Z,79.10
2023-01-15T16:32:30.919Z,79.47
2023-01-15T16:35:07.652Z,79.00
2023-01-15T16:37:36.255Z,79.63
2023-01-15T16:40:05.625Z,79.28
2023-01-15T16:42:40.190Z,78.43
2023-01-15T16:45:23.790Z,79.01
2023-01-15T16:48:10.519Z,79.19
2023-01-15T16:50:44.883Z,79.00
2023-01-15T16:53:42.426Z,78.12
2023-01-15T16:56:42.099Z,78.15
2023-01-15T16:59:17.773Z,78.10
2023-01-15T17:01:52.290Z,78.11
2023-01-15T17:04:34.465Z,78.00
2023-01-15T17:07:08.800Z,77.73
2023-01-15T17:09:37.881Z,76.88
2023-01-15T17:12:19.118Z,77.29
2023-01-15T17:14:45.894Z,77.83
2023-01-15T17:17:21.750Z,77.34
2023-01-15T17:19:50.363Z,76.70
2023-01-15T17:22:25.030Z,77.29
2023-01-15T17:24:54.767Z,77.45
2023-01-15T17:27:24.059Z,77.53
2023-01-15T17:29:51.535Z,77.35
2023-01-15T17:32:30.633Z,77.00
2023-01-15T17:34:57.405Z,76.81
2023-01-15T17:37:25.374Z,76.98
2023-01-15T17:39:52.214Z,77.49
2023-01-15T17:42:20.438Z,77.85
2023-01-15T17:44:47.436Z,77.25
2023-01-15T17:47:14.141Z,77.43
2023-01-15T17:49:41.165Z,76.80
2023-01-15T17:52:18.498Z,76.20
2023-01-15T17:55:03.781Z,76.63
2023-01-15T17:57:50.515Z,76.74
2023-01-15T18:00:36.374Z,76.81
2023-01-15T18:03:22.947Z,76.64
2023-01-15T18:05:52.935Z,76.23
2023-01-15T18:08:20.017Z,75.75
2023-01-15T18:10:49.840Z,75.92
2023-01-15T18:13:17.066Z,75.71
2023-01-15T18:15:44.053Z,75.68
2023-01-15T18:18:11.549Z,75.80
2023-01-15T18:20:39.162Z,75.84
2023-01-15T18:23:07.537Z,75.63
2023-01-15T18:25:35.327Z,75.75
2023-01-15T18:28:02.356Z,75.68
2023-01-15T18:30:29.883Z,75.52
2023-01-15T18:32:56.647Z,74.87
2023-01-15T18:35:24.007Z,74.82
2023-01-15T18:37:50.879Z,74.40
2023-01-15T18:40:18.095Z,74.65
2023-01-15T18:43:07.291Z,74.43
2023-01-15T18:45:53.180Z,75.77
2023-01-15T18:48:30.154Z,74.53
2023-01-15T18:50:58.929Z,74.82
2023-01-15T18:53:28.001Z,74.53
2023-01-15T18:56:02.288Z,74.35
2023-01-15T18:58:29.190Z,74.36
2023-01-15T19:00:56.251Z,74.39
2023-01-15T19:03:23.298Z,74.45
2023-01-15T19:05:50.813Z,73.58
2023-01-15T19:08:17.874Z,73.60
2023-01-15T19:10:48.179Z,73.77
2023-01-15T19:13:18.119Z,73.64
2023-01-15T19:16:03.672Z,73.86
2023-01-15T19:18:45.577Z,73.30
2023-01-15T19:21:13.041Z,73.80
2023-01-15T19:23:40.038Z,74.32
2023-01-15T19:26:07.001Z,74.90
2023-01-15T19:28:34.105Z,75.27
2023-01-15T19:31:19.675Z,75.68
2023-01-15T19:33:46.646Z,76.27
2023-01-15T19:36:13.650Z,76.56
2023-01-15T19:38:41.436Z,77.08
2023-01-15T19:41:30.989Z,77.19
2023-01-15T19:44:16.569Z,77.83
2023-01-15T19:47:02.420Z,78.25
2023-01-15T19:49:55.835Z,78.59
2023-01-15T19:52:34.719Z,78.84
2023-01-15T19:55:08.253Z,78.42
2023-01-15T19:57:35.137Z,78.91
2023-01-15T20:00:02.113Z,79.30
2023-01-15T20:02:28.953Z,79.96
2023-01-15T20:04:55.702Z,80.21
2023-01-15T20:07:22.511Z,80.01
2023-01-15T20:09:49.327Z,80.23
2023-01-15T20:12:34.798Z,80.55
2023-01-15T20:15:02.014Z,80.95
2023-01-15T20:17:30.162Z,80.65
2023-01-15T20:19:58.008Z,80.90
2023-01-15T20:22:26.961Z,80.59
2023-01-15T20:24:56.793Z,81.15
2023-01-15T20:27:23.919Z,80.81
2023-01-15T20:30:00.670Z,80.26
2023-01-15T20:32:27.620Z,80.66
2023-01-15T20:34:54.934Z,80.05
2023-01-15T20:37:23.187Z,79.67
2023-01-15T20:39:53.631Z,79.52
2023-01-15T20:42:39.054Z,79.23
2023-01-15T20:45:11.228Z,79.27
2023-01-15T20:48:00.883Z,79.26
2023-01-15T20:50:31.030Z,79.04
2023-01-15T20:52:58.696Z,78.84
2023-01-15T20:55:54.799Z,78.93
2023-01-15T20:58:24.191Z,79.07
2023-01-15T21:00:51.929Z,79.44
2023-01-15T21:03:18.997Z,78.96
2023-01-15T21:05:47.715Z,78.71
2023-01-15T21:08:15.995Z,78.93
2023-01-15T21:10:43.025Z,78.84
2023-01-15T21:13:10.196Z,78.84
2023-01-15T21:15:37.116Z,78.34
2023-01-15T21:18:06.204Z,78.24
2023-01-15T21:20:33.107Z,78.50
2023-01-15T21:23:00.012Z,78.42
2023-01-15T21:25:26.775Z,78.14
2023-01-15T21:27:53.599Z,78.16
2023-01-15T21:30:20.906Z,78.32
2023-01-15T21:32:48.862Z,78.01
2023-01-15T21:35:15.886Z,78.09
2023-01-15T21:37:43.148Z,78.00
2023-01-15T21:40:10.672Z,78.16
2023-01-15T21:42:56.131Z,78.06
2023-01-15T21:45:22.905Z,77.69
2023-01-15T21:47:49.778Z,77.89
2023-01-15T21:50:17.953Z,78.11
2023-01-15T21:52:44.823Z,77.87
2023-01-15T21:55:13.120Z,77.92
2023-01-15T21:57:40.102Z,77.98
2023-01-15T22:00:08.181Z,77.54
2023-01-15T22:02:35.835Z,77.16
2023-01-15T22:05:04.365Z,77.34
2023-01-15T22:07:31.250Z,77.15
2023-01-15T22:09:58.002Z,77.13
2023-01-15T22:12:24.697Z,77.01
2023-01-15T22:14:53.616Z,76.60
2023-01-15T22:17:20.620Z,76.33
2023-01-15T22:19:47.395Z,76.29
2023-01-15T22:22:14.322Z,76.00
2023-01-15T22:24:41.235Z,76.14
2023-01-15T22:27:12.076Z,75.93
2023-01-15T22:29:40.776Z,75.95
2023-01-15T22:32:10.390Z,75.97
2023-01-15T22:34:37.206Z,75.60
2023-01-15T22:37:04.078Z,76.25
2023-01-15T22:39:31.076Z,75.66
2023-01-15T22:42:16.395Z,76.06
2023-01-15T22:44:45.106Z,76.05
2023-01-15T22:47:12.651Z,75.92
2023-01-15T22:49:39.401Z,75.41
2023-01-15T22:52:06.359Z,75.49
2023-01-15T22:54:33.610Z,75.24
2023-01-15T22:57:00.607Z,75.25
2023-01-15T22:59:27.479Z,75.34
2023-01-15T23:01:54.416Z,74.30
2023-01-15T23:04:24.274Z,74.24
2023-01-15T23:06:52.546Z,74.56
2023-01-15T23:09:22.185Z,74.49
2023-01-15T23:11:51.276Z,74.30
2023-01-15T23:14:20.565Z,74.41
2023-01-15T23:16:47.595Z,74.24
2023-01-15T23:19:14.608Z,74.65
2023-01-15T23:21:41.945Z,74.54
2023-01-15T23:24:10.733Z,74.72
2023-01-15T23:26:37.577Z,74.93
2023-01-15T23:29:04.858Z,74.89
2023-01-15T23:31:31.873Z,74.87
2023-01-15T23:33:59.418Z,75.17
2023-01-15T23:36:26.765Z,75.32
2023-01-15T23:38:53.765Z,75.08
2023-01-15T23:41:43.068Z,75.51
2023-01-15T23:44:35.505Z,75.34
2023-01-15T23:47:02.488Z,75.74
2023-01-15T23:49:29.800Z,75.99
2023-01-15T23:51:56.664Z,76.02
2023-01-15T23:54:27.440Z,76.25
2023-01-15T23:56:55.538Z,76.15
2023-01-15T23:59:22.352Z,76.52
